Artesia, NM

3:02 AM MDT on August 20, 2014 (GMT -0600)
Artesia Municipal | Change Station
CLOSE
Current Station
Airport
Location: Artesia,
Elevation: 3540 ft
Nearby Weather Stations

Elev 3540 ft 32.85 °N, 104.47 °W | Updated 7 minutes ago

Clear
Clear
73 °F
Feels Like 73 °F
N
6
Wind Variable Wind from South

Today
High -- | Low -- °F
--% Chance of Precip.
Yesterday
High -- | Low -- °F
Precip. -- in
6:24 AM 7:37 PM
Waning Crescent, 23% visible
Pressure 29.89 in
Visibility 10.0 miles
Clouds Clear
Dew Point 57 °F
Humidity 57%
Rainfall 0.00 in
Snow Depth Not available.
UV 0 out of 12
Pollen 7.70 out of 12
Air Quality Not available.
Flu Activity Not available.
METAR KATS 200855Z AUTO 19005KT 10SM CLR 23/14 A2989 RMK AO2

More Conditions Fewer Conditions

Pressure 29.89 in
Visibility 10.0 miles
Clouds Clear
Dew Point 57 °F
Humidity 57%
Rainfall 0.00 in
Snow Depth Not available.
UV 0 out of 12
Pollen 7.70 out of 12
Air Quality Not available.
Flu Activity Not available.
METAR KATS 200855Z AUTO 19005KT 10SM CLR 23/14 A2989 RMK AO2

More Conditions Fewer Conditions

10-Day Weather Forecast

Almanac

Astronomy

Aug. 20, 2014 Rise Set
Actual Time 6:24 AM MDT 7:37 PM MDT
Civil Twilight 5:58 AM MDT 8:02 PM MDT
Nautical Twilight 5:28 AM MDT 8:33 PM MDT
Astronomical Twilight 4:56 AM MDT 9:04 PM MDT
Moon 2:12 AM MDT 4:18 PM MDT
Length of Visible Light 14h 04m
Length of Day
13h 12m
Tomorrow will be 1m 49s shorter.
Waning Crescent, 23% of the Moon is Illuminated
Today
Waning Crescent
Aug 25
New
Sep 2
First Quarter
Sep 8
Full
Sep 15
Last Quarter

Today's Extremes

State Highs State Lows

Community

WunderPhotos

Upload Photos

1,745,604 photos uploaded!

Nearby

Snow Depth

Station Depth Elevation
Sierra Blanca 1 in 10280 ft
McKnight Cabin 0 in 9240 ft
Wesner Springs 2 in 11120 ft
Santa Fe 0 in 11445 ft
Gallegos Peak 0 in 9800 ft

Earthquake Activity

City Distance Mag. Time & Date
No recent earthquake activity has been reported nearby.
Minimum magnitude displayed is 2.5.

Coastal Water Temperatures

Place Temperature
No Stations Reporting

Nearby Weather Stations